sensor_id;sensor_type;location;lat;lon;timestamp;P1;durP1;ratioP1;P2;durP2;ratioP2
71187;SDS011;58893;53.130;8.158;2022-10-31T00:01:35;30.83;;;13.50;;
71187;SDS011;58893;53.130;8.158;2022-10-31T00:04:02;30.87;;;14.33;;
71187;SDS011;58893;53.130;8.158;2022-10-31T00:06:29;26.37;;;12.87;;
71187;SDS011;58893;53.130;8.158;2022-10-31T00:08:56;27.93;;;14.17;;
71187;SDS011;58893;53.130;8.158;2022-10-31T00:11:24;29.80;;;14.77;;
71187;SDS011;58893;53.130;8.158;2022-10-31T00:13:50;40.97;;;14.90;;
71187;SDS011;58893;53.130;8.158;2022-10-31T00:16:16;28.33;;;14.30;;
71187;SDS011;58893;53.130;8.158;2022-10-31T00:18:43;31.20;;;14.80;;
71187;SDS011;58893;53.130;8.158;2022-10-31T00:21:12;32.03;;;12.63;;
71187;SDS011;58893;53.130;8.158;2022-10-31T00:23:38;26.43;;;13.33;;
71187;SDS011;58893;53.130;8.158;2022-10-31T00:26:03;26.30;;;13.03;;
71187;SDS011;58893;53.130;8.158;2022-10-31T00:28:30;28.00;;;11.90;;
71187;SDS011;58893;53.130;8.158;2022-10-31T00:31:00;27.80;;;12.73;;
71187;SDS011;58893;53.130;8.158;2022-10-31T00:33:26;28.80;;;12.60;;
71187;SDS011;58893;53.130;8.158;2022-10-31T00:35:52;27.10;;;13.70;;
71187;SDS011;58893;53.130;8.158;2022-10-31T00:38:18;30.73;;;13.27;;
71187;SDS011;58893;53.130;8.158;2022-10-31T00:40:44;29.10;;;11.10;;
71187;SDS011;58893;53.130;8.158;2022-10-31T00:43:09;35.45;;;12.15;;
71187;SDS011;58893;53.130;8.158;2022-10-31T00:45:35;23.87;;;12.13;;
71187;SDS011;58893;53.130;8.158;2022-10-31T00:48:00;25.60;;;12.47;;
71187;SDS011;58893;53.130;8.158;2022-10-31T00:50:26;26.77;;;12.30;;
71187;SDS011;58893;53.130;8.158;2022-10-31T00:52:51;20.50;;;11.40;;
71187;SDS011;58893;53.130;8.158;2022-10-31T00:55:17;21.67;;;10.93;;
71187;SDS011;58893;53.130;8.158;2022-10-31T00:57:45;21.60;;;11.40;;
71187;SDS011;58893;53.130;8.158;2022-10-31T01:00:11;29.80;;;11.00;;
71187;SDS011;58893;53.130;8.158;2022-10-31T01:02:37;21.00;;;11.10;;
71187;SDS011;58893;53.130;8.158;2022-10-31T01:05:03;25.03;;;10.50;;
71187;SDS011;58893;53.130;8.158;2022-10-31T01:07:28;16.80;;;9.10;;
71187;SDS011;58893;53.130;8.158;2022-10-31T01:09:54;16.47;;;9.97;;
71187;SDS011;58893;53.130;8.158;2022-10-31T01:12:20;23.00;;;8.83;;
71187;SDS011;58893;53.130;8.158;2022-10-31T01:14:45;16.43;;;7.80;;
71187;SDS011;58893;53.130;8.158;2022-10-31T01:17:11;20.77;;;9.00;;
71187;SDS011;58893;53.130;8.158;2022-10-31T01:19:37;19.40;;;7.33;;
71187;SDS011;58893;53.130;8.158;2022-10-31T01:22:03;20.73;;;9.23;;
71187;SDS011;58893;53.130;8.158;2022-10-31T01:24:28;24.70;;;9.77;;
71187;SDS011;58893;53.130;8.158;2022-10-31T01:26:54;21.30;;;9.00;;
71187;SDS011;58893;53.130;8.158;2022-10-31T01:29:19;21.63;;;9.90;;
71187;SDS011;58893;53.130;8.158;2022-10-31T01:31:45;20.40;;;11.37;;
71187;SDS011;58893;53.130;8.158;2022-10-31T01:34:12;16.60;;;10.43;;
71187;SDS011;58893;53.130;8.158;2022-10-31T01:36:40;16.70;;;10.93;;
71187;SDS011;58893;53.130;8.158;2022-10-31T01:39:08;19.83;;;10.77;;
71187;SDS011;58893;53.130;8.158;2022-10-31T01:41:37;18.30;;;10.00;;
71187;SDS011;58893;53.130;8.158;2022-10-31T01:49:13;16.40;;;9.37;;
71187;SDS011;58893;53.130;8.158;2022-10-31T01:51:47;19.47;;;8.57;;
71187;SDS011;58893;53.130;8.158;2022-10-31T01:54:32;24.63;;;8.43;;
71187;SDS011;58893;53.130;8.158;2022-10-31T01:57:03;13.90;;;7.17;;
71187;SDS011;58893;53.130;8.158;2022-10-31T01:59:32;10.10;;;6.50;;
71187;SDS011;58893;53.130;8.158;2022-10-31T02:02:02;14.87;;;7.70;;
71187;SDS011;58893;53.130;8.158;2022-10-31T02:04:28;16.73;;;8.00;;
71187;SDS011;58893;53.130;8.158;2022-10-31T02:06:58;14.00;;;7.80;;
71187;SDS011;58893;53.130;8.158;2022-10-31T02:09:29;18.30;;;9.60;;
71187;SDS011;58893;53.130;8.158;2022-10-31T02:11:57;24.03;;;9.27;;
71187;SDS011;58893;53.130;8.158;2022-10-31T02:14:24;16.10;;;8.97;;
71187;SDS011;58893;53.130;8.158;2022-10-31T02:16:55;15.20;;;8.97;;
71187;SDS011;58893;53.130;8.158;2022-10-31T02:19:26;16.70;;;9.40;;
71187;SDS011;58893;53.130;8.158;2022-10-31T02:22:09;21.33;;;11.20;;
71187;SDS011;58893;53.130;8.158;2022-10-31T02:24:54;26.70;;;10.07;;
71187;SDS011;58893;53.130;8.158;2022-10-31T02:30:09;29.37;;;12.20;;
71187;SDS011;58893;53.130;8.158;2022-10-31T02:36:00;25.47;;;12.20;;
71187;SDS011;58893;53.130;8.158;2022-10-31T02:38:56;26.53;;;12.23;;
71187;SDS011;58893;53.130;8.158;2022-10-31T02:46:59;21.33;;;11.27;;
71187;SDS011;58893;53.130;8.158;2022-10-31T02:49:43;22.17;;;10.57;;
71187;SDS011;58893;53.130;8.158;2022-10-31T02:52:24;15.23;;;8.30;;
71187;SDS011;58893;53.130;8.158;2022-10-31T02:54:54;18.50;;;9.60;;
71187;SDS011;58893;53.130;8.158;2022-10-31T02:57:27;14.50;;;8.33;;
71187;SDS011;58893;53.130;8.158;2022-10-31T02:59:57;15.40;;;8.80;;
71187;SDS011;58893;53.130;8.158;2022-10-31T03:10:46;18.67;;;10.50;;
71187;SDS011;58893;53.130;8.158;2022-10-31T03:15:46;17.53;;;8.60;;
71187;SDS011;58893;53.130;8.158;2022-10-31T03:18:17;25.20;;;9.23;;
71187;SDS011;58893;53.130;8.158;2022-10-31T03:23:38;16.77;;;7.83;;
71187;SDS011;58893;53.130;8.158;2022-10-31T03:26:05;12.90;;;6.63;;
71187;SDS011;58893;53.130;8.158;2022-10-31T03:28:36;10.57;;;6.37;;
71187;SDS011;58893;53.130;8.158;2022-10-31T03:31:06;13.97;;;7.60;;
71187;SDS011;58893;53.130;8.158;2022-10-31T03:33:33;14.93;;;7.93;;
71187;SDS011;58893;53.130;8.158;2022-10-31T03:36:01;16.23;;;8.20;;
71187;SDS011;58893;53.130;8.158;2022-10-31T03:38:29;19.17;;;7.50;;
71187;SDS011;58893;53.130;8.158;2022-10-31T03:40:58;18.20;;;9.73;;
71187;SDS011;58893;53.130;8.158;2022-10-31T03:43:30;19.63;;;9.43;;
71187;SDS011;58893;53.130;8.158;2022-10-31T03:46:01;25.97;;;10.37;;
71187;SDS011;58893;53.130;8.158;2022-10-31T03:48:27;16.30;;;9.07;;
71187;SDS011;58893;53.130;8.158;2022-10-31T03:51:01;17.50;;;10.07;;
71187;SDS011;58893;53.130;8.158;2022-10-31T03:54:04;16.27;;;7.80;;
71187;SDS011;58893;53.130;8.158;2022-10-31T03:56:34;14.70;;;8.47;;
71187;SDS011;58893;53.130;8.158;2022-10-31T03:59:04;17.37;;;8.80;;
71187;SDS011;58893;53.130;8.158;2022-10-31T04:01:42;14.40;;;7.80;;
71187;SDS011;58893;53.130;8.158;2022-10-31T04:04:12;15.03;;;8.40;;
71187;SDS011;58893;53.130;8.158;2022-10-31T04:06:39;19.00;;;9.90;;
71187;SDS011;58893;53.130;8.158;2022-10-31T04:09:08;17.63;;;8.50;;
71187;SDS011;58893;53.130;8.158;2022-10-31T04:11:36;12.10;;;7.93;;
71187;SDS011;58893;53.130;8.158;2022-10-31T04:14:07;13.40;;;8.20;;
71187;SDS011;58893;53.130;8.158;2022-10-31T04:16:34;12.37;;;7.90;;
71187;SDS011;58893;53.130;8.158;2022-10-31T04:18:59;12.33;;;7.53;;
71187;SDS011;58893;53.130;8.158;2022-10-31T04:21:28;11.47;;;7.83;;
71187;SDS011;58893;53.130;8.158;2022-10-31T04:23:55;10.10;;;7.30;;
71187;SDS011;58893;53.130;8.158;2022-10-31T04:26:21;12.83;;;6.97;;
71187;SDS011;58893;53.130;8.158;2022-10-31T04:28:46;9.93;;;6.53;;
71187;SDS011;58893;53.130;8.158;2022-10-31T04:31:12;11.00;;;7.93;;
71187;SDS011;58893;53.130;8.158;2022-10-31T04:33:38;8.03;;;6.23;;
71187;SDS011;58893;53.130;8.158;2022-10-31T04:36:04;9.63;;;6.70;;
71187;SDS011;58893;53.130;8.158;2022-10-31T04:38:30;8.27;;;6.63;;
71187;SDS011;58893;53.130;8.158;2022-10-31T04:40:55;10.27;;;7.50;;
71187;SDS011;58893;53.130;8.158;2022-10-31T04:43:21;14.90;;;7.30;;
71187;SDS011;58893;53.130;8.158;2022-10-31T04:45:47;11.77;;;7.27;;
71187;SDS011;58893;53.130;8.158;2022-10-31T04:48:13;12.93;;;7.60;;
71187;SDS011;58893;53.130;8.158;2022-10-31T04:50:38;11.40;;;8.13;;
71187;SDS011;58893;53.130;8.158;2022-10-31T04:53:04;12.37;;;7.20;;
71187;SDS011;58893;53.130;8.158;2022-10-31T04:55:30;11.97;;;8.30;;
71187;SDS011;58893;53.130;8.158;2022-10-31T04:57:56;9.57;;;6.90;;
71187;SDS011;58893;53.130;8.158;2022-10-31T05:00:22;8.60;;;6.40;;
71187;SDS011;58893;53.130;8.158;2022-10-31T05:02:48;11.60;;;7.30;;
71187;SDS011;58893;53.130;8.158;2022-10-31T05:05:19;11.87;;;7.23;;
71187;SDS011;58893;53.130;8.158;2022-10-31T05:07:55;12.93;;;8.20;;
71187;SDS011;58893;53.130;8.158;2022-10-31T05:10:22;11.60;;;7.93;;
71187;SDS011;58893;53.130;8.158;2022-10-31T05:12:50;11.47;;;8.37;;
71187;SDS011;58893;53.130;8.158;2022-10-31T05:15:24;15.13;;;8.60;;
71187;SDS011;58893;53.130;8.158;2022-10-31T05:17:51;14.50;;;8.30;;
71187;SDS011;58893;53.130;8.158;2022-10-31T05:20:18;10.53;;;7.37;;
71187;SDS011;58893;53.130;8.158;2022-10-31T05:22:45;14.73;;;8.50;;
71187;SDS011;58893;53.130;8.158;2022-10-31T05:25:13;11.50;;;7.33;;
71187;SDS011;58893;53.130;8.158;2022-10-31T05:27:39;17.07;;;8.33;;
71187;SDS011;58893;53.130;8.158;2022-10-31T05:30:06;13.10;;;8.17;;
71187;SDS011;58893;53.130;8.158;2022-10-31T05:32:39;15.00;;;9.00;;
71187;SDS011;58893;53.130;8.158;2022-10-31T05:35:07;11.30;;;8.33;;
71187;SDS011;58893;53.130;8.158;2022-10-31T05:37:34;12.00;;;8.30;;
71187;SDS011;58893;53.130;8.158;2022-10-31T05:40:00;11.53;;;8.40;;
71187;SDS011;58893;53.130;8.158;2022-10-31T05:42:27;13.30;;;7.47;;
71187;SDS011;58893;53.130;8.158;2022-10-31T05:44:52;11.43;;;8.27;;
71187;SDS011;58893;53.130;8.158;2022-10-31T05:47:18;12.70;;;7.83;;
71187;SDS011;58893;53.130;8.158;2022-10-31T05:49:43;10.40;;;7.50;;
71187;SDS011;58893;53.130;8.158;2022-10-31T05:52:09;11.60;;;8.10;;
71187;SDS011;58893;53.130;8.158;2022-10-31T05:54:34;12.00;;;8.63;;
71187;SDS011;58893;53.130;8.158;2022-10-31T05:57:00;13.10;;;8.40;;
71187;SDS011;58893;53.130;8.158;2022-10-31T05:59:25;14.57;;;8.77;;
71187;SDS011;58893;53.130;8.158;2022-10-31T06:01:51;13.90;;;8.13;;
71187;SDS011;58893;53.130;8.158;2022-10-31T06:04:16;11.40;;;7.47;;
71187;SDS011;58893;53.130;8.158;2022-10-31T06:06:42;11.17;;;7.73;;
71187;SDS011;58893;53.130;8.158;2022-10-31T06:09:07;11.00;;;7.50;;
71187;SDS011;58893;53.130;8.158;2022-10-31T06:11:33;13.30;;;8.87;;
71187;SDS011;58893;53.130;8.158;2022-10-31T06:13:59;13.80;;;8.50;;
71187;SDS011;58893;53.130;8.158;2022-10-31T06:16:24;11.47;;;8.40;;
71187;SDS011;58893;53.130;8.158;2022-10-31T06:18:50;14.73;;;9.60;;
71187;SDS011;58893;53.130;8.158;2022-10-31T06:21:15;11.23;;;8.20;;
71187;SDS011;58893;53.130;8.158;2022-10-31T06:23:41;14.30;;;8.93;;
71187;SDS011;58893;53.130;8.158;2022-10-31T06:26:06;14.67;;;8.47;;
71187;SDS011;58893;53.130;8.158;2022-10-31T06:28:32;11.47;;;8.30;;
71187;SDS011;58893;53.130;8.158;2022-10-31T06:30:57;14.40;;;9.33;;
71187;SDS011;58893;53.130;8.158;2022-10-31T06:33:23;11.93;;;8.57;;
71187;SDS011;58893;53.130;8.158;2022-10-31T06:35:49;21.10;;;10.37;;
71187;SDS011;58893;53.130;8.158;2022-10-31T06:38:14;16.47;;;10.20;;
71187;SDS011;58893;53.130;8.158;2022-10-31T06:40:40;13.10;;;9.90;;
71187;SDS011;58893;53.130;8.158;2022-10-31T06:43:05;14.97;;;9.33;;
71187;SDS011;58893;53.130;8.158;2022-10-31T06:45:31;14.93;;;9.73;;
71187;SDS011;58893;53.130;8.158;2022-10-31T06:47:56;14.10;;;9.17;;
71187;SDS011;58893;53.130;8.158;2022-10-31T06:50:23;18.47;;;9.57;;
71187;SDS011;58893;53.130;8.158;2022-10-31T06:52:52;16.00;;;9.47;;
71187;SDS011;58893;53.130;8.158;2022-10-31T06:55:19;13.80;;;8.90;;
71187;SDS011;58893;53.130;8.158;2022-10-31T06:57:55;17.93;;;9.83;;
71187;SDS011;58893;53.130;8.158;2022-10-31T07:00:21;14.40;;;9.30;;
71187;SDS011;58893;53.130;8.158;2022-10-31T07:02:55;18.30;;;10.57;;
71187;SDS011;58893;53.130;8.158;2022-10-31T07:05:25;17.50;;;10.00;;
71187;SDS011;58893;53.130;8.158;2022-10-31T07:07:54;15.77;;;9.60;;
71187;SDS011;58893;53.130;8.158;2022-10-31T07:10:21;16.03;;;8.97;;
71187;SDS011;58893;53.130;8.158;2022-10-31T07:12:48;15.30;;;9.80;;
71187;SDS011;58893;53.130;8.158;2022-10-31T07:15:18;15.83;;;9.20;;
71187;SDS011;58893;53.130;8.158;2022-10-31T07:17:43;13.00;;;9.40;;
71187;SDS011;58893;53.130;8.158;2022-10-31T07:20:09;14.50;;;8.83;;
71187;SDS011;58893;53.130;8.158;2022-10-31T07:22:35;16.10;;;10.40;;
71187;SDS011;58893;53.130;8.158;2022-10-31T07:25:01;20.63;;;10.50;;
71187;SDS011;58893;53.130;8.158;2022-10-31T07:27:27;19.07;;;11.13;;
71187;SDS011;58893;53.130;8.158;2022-10-31T07:29:52;15.60;;;9.73;;
71187;SDS011;58893;53.130;8.158;2022-10-31T07:32:18;13.97;;;9.20;;
71187;SDS011;58893;53.130;8.158;2022-10-31T07:34:44;13.20;;;9.73;;
71187;SDS011;58893;53.130;8.158;2022-10-31T07:37:09;16.93;;;10.77;;
71187;SDS011;58893;53.130;8.158;2022-10-31T07:39:35;15.67;;;9.93;;
71187;SDS011;58893;53.130;8.158;2022-10-31T07:42:00;16.47;;;9.70;;
71187;SDS011;58893;53.130;8.158;2022-10-31T07:44:26;16.20;;;10.37;;
71187;SDS011;58893;53.130;8.158;2022-10-31T07:46:51;16.20;;;11.00;;
71187;SDS011;58893;53.130;8.158;2022-10-31T07:49:17;18.23;;;10.67;;
71187;SDS011;58893;53.130;8.158;2022-10-31T07:51:42;15.00;;;10.17;;
71187;SDS011;58893;53.130;8.158;2022-10-31T07:54:08;17.27;;;10.03;;
71187;SDS011;58893;53.130;8.158;2022-10-31T07:56:33;16.53;;;10.57;;
71187;SDS011;58893;53.130;8.158;2022-10-31T07:58:59;15.83;;;10.37;;
71187;SDS011;58893;53.130;8.158;2022-10-31T08:01:25;15.70;;;11.00;;
71187;SDS011;58893;53.130;8.158;2022-10-31T08:03:50;15.70;;;9.87;;
71187;SDS011;58893;53.130;8.158;2022-10-31T08:06:16;17.37;;;10.70;;
71187;SDS011;58893;53.130;8.158;2022-10-31T08:08:41;15.13;;;8.83;;
71187;SDS011;58893;53.130;8.158;2022-10-31T08:11:07;14.43;;;10.10;;
71187;SDS011;58893;53.130;8.158;2022-10-31T08:13:33;15.30;;;9.90;;
71187;SDS011;58893;53.130;8.158;2022-10-31T08:15:58;14.17;;;9.83;;
71187;SDS011;58893;53.130;8.158;2022-10-31T08:18:28;13.97;;;9.93;;
71187;SDS011;58893;53.130;8.158;2022-10-31T08:20:54;14.37;;;9.80;;
71187;SDS011;58893;53.130;8.158;2022-10-31T08:23:20;14.30;;;9.40;;
71187;SDS011;58893;53.130;8.158;2022-10-31T08:25:46;13.27;;;9.30;;
71187;SDS011;58893;53.130;8.158;2022-10-31T08:28:12;13.80;;;8.83;;
71187;SDS011;58893;53.130;8.158;2022-10-31T08:30:39;15.07;;;10.17;;
71187;SDS011;58893;53.130;8.158;2022-10-31T08:33:12;13.90;;;8.70;;
71187;SDS011;58893;53.130;8.158;2022-10-31T08:35:40;15.30;;;9.77;;
71187;SDS011;58893;53.130;8.158;2022-10-31T08:38:06;14.50;;;9.37;;
71187;SDS011;58893;53.130;8.158;2022-10-31T08:40:33;16.03;;;9.33;;
71187;SDS011;58893;53.130;8.158;2022-10-31T08:43:03;13.60;;;9.00;;
71187;SDS011;58893;53.130;8.158;2022-10-31T08:45:32;13.93;;;9.33;;
71187;SDS011;58893;53.130;8.158;2022-10-31T08:47:59;16.47;;;9.83;;
71187;SDS011;58893;53.130;8.158;2022-10-31T08:50:25;14.23;;;9.97;;
71187;SDS011;58893;53.130;8.158;2022-10-31T08:52:52;15.27;;;9.43;;
71187;SDS011;58893;53.130;8.158;2022-10-31T08:55:18;16.03;;;11.17;;
71187;SDS011;58893;53.130;8.158;2022-10-31T08:57:43;14.13;;;9.23;;
71187;SDS011;58893;53.130;8.158;2022-10-31T09:00:09;15.53;;;10.30;;
71187;SDS011;58893;53.130;8.158;2022-10-31T09:02:35;18.00;;;11.70;;
71187;SDS011;58893;53.130;8.158;2022-10-31T09:05:02;19.20;;;10.03;;
71187;SDS011;58893;53.130;8.158;2022-10-31T09:07:27;17.60;;;10.70;;
71187;SDS011;58893;53.130;8.158;2022-10-31T09:09:53;19.73;;;11.73;;
71187;SDS011;58893;53.130;8.158;2022-10-31T09:12:20;19.07;;;12.40;;
71187;SDS011;58893;53.130;8.158;2022-10-31T09:14:46;17.80;;;11.37;;
71187;SDS011;58893;53.130;8.158;2022-10-31T09:17:12;23.90;;;12.30;;
71187;SDS011;58893;53.130;8.158;2022-10-31T09:19:37;22.07;;;12.87;;
71187;SDS011;58893;53.130;8.158;2022-10-31T09:22:03;16.90;;;11.80;;
71187;SDS011;58893;53.130;8.158;2022-10-31T09:24:29;20.13;;;12.07;;
71187;SDS011;58893;53.130;8.158;2022-10-31T09:26:54;22.70;;;13.60;;
71187;SDS011;58893;53.130;8.158;2022-10-31T09:29:20;23.50;;;14.63;;
71187;SDS011;58893;53.130;8.158;2022-10-31T09:31:45;25.00;;;14.43;;
71187;SDS011;58893;53.130;8.158;2022-10-31T09:34:11;22.70;;;13.20;;
71187;SDS011;58893;53.130;8.158;2022-10-31T09:36:37;24.47;;;13.57;;
71187;SDS011;58893;53.130;8.158;2022-10-31T09:39:03;23.23;;;13.60;;
71187;SDS011;58893;53.130;8.158;2022-10-31T09:41:32;22.27;;;12.80;;
71187;SDS011;58893;53.130;8.158;2022-10-31T09:44:27;22.53;;;13.47;;
71187;SDS011;58893;53.130;8.158;2022-10-31T09:47:21;23.83;;;13.17;;
71187;SDS011;58893;53.130;8.158;2022-10-31T09:50:34;26.13;;;13.10;;
71187;SDS011;58893;53.130;8.158;2022-10-31T09:53:07;24.00;;;14.10;;
71187;SDS011;58893;53.130;8.158;2022-10-31T09:55:39;27.57;;;14.80;;
71187;SDS011;58893;53.130;8.158;2022-10-31T09:58:09;23.43;;;13.70;;
71187;SDS011;58893;53.130;8.158;2022-10-31T10:00:40;22.67;;;12.67;;
71187;SDS011;58893;53.130;8.158;2022-10-31T10:08:50;26.87;;;13.77;;
71187;SDS011;58893;53.130;8.158;2022-10-31T10:19:50;27.37;;;14.70;;
71187;SDS011;58893;53.130;8.158;2022-10-31T10:25:56;24.53;;;13.87;;
71187;SDS011;58893;53.130;8.158;2022-10-31T10:30:52;30.07;;;15.07;;
71187;SDS011;58893;53.130;8.158;2022-10-31T10:33:36;29.47;;;13.87;;
71187;SDS011;58893;53.130;8.158;2022-10-31T10:36:32;23.23;;;12.80;;
71187;SDS011;58893;53.130;8.158;2022-10-31T10:39:03;27.57;;;14.30;;
71187;SDS011;58893;53.130;8.158;2022-10-31T10:41:36;26.70;;;16.00;;
71187;SDS011;58893;53.130;8.158;2022-10-31T10:44:08;32.50;;;16.03;;
71187;SDS011;58893;53.130;8.158;2022-10-31T10:46:48;27.00;;;15.60;;
71187;SDS011;58893;53.130;8.158;2022-10-31T10:49:40;27.07;;;14.50;;
71187;SDS011;58893;53.130;8.158;2022-10-31T10:59:59;28.30;;;16.40;;
71187;SDS011;58893;53.130;8.158;2022-10-31T11:02:31;29.37;;;14.67;;
71187;SDS011;58893;53.130;8.158;2022-10-31T11:04:58;33.60;;;15.60;;
71187;SDS011;58893;53.130;8.158;2022-10-31T11:07:25;34.03;;;14.87;;
71187;SDS011;58893;53.130;8.158;2022-10-31T11:10:02;30.07;;;15.03;;
71187;SDS011;58893;53.130;8.158;2022-10-31T11:12:31;30.60;;;15.00;;
71187;SDS011;58893;53.130;8.158;2022-10-31T11:14:59;26.97;;;14.10;;
71187;SDS011;58893;53.130;8.158;2022-10-31T11:17:37;25.00;;;12.77;;
71187;SDS011;58893;53.130;8.158;2022-10-31T11:20:26;35.50;;;14.80;;
71187;SDS011;58893;53.130;8.158;2022-10-31T11:23:10;26.40;;;15.20;;
71187;SDS011;58893;53.130;8.158;2022-10-31T11:25:48;28.00;;;15.10;;
71187;SDS011;58893;53.130;8.158;2022-10-31T11:28:25;26.60;;;12.70;;
71187;SDS011;58893;53.130;8.158;2022-10-31T11:30:55;30.60;;;14.80;;
71187;SDS011;58893;53.130;8.158;2022-10-31T11:33:34;33.80;;;12.40;;
71187;SDS011;58893;53.130;8.158;2022-10-31T11:38:46;24.50;;;11.70;;
71187;SDS011;58893;53.130;8.158;2022-10-31T11:43:45;21.60;;;11.83;;
71187;SDS011;58893;53.130;8.158;2022-10-31T11:46:21;26.87;;;11.77;;
71187;SDS011;58893;53.130;8.158;2022-10-31T11:48:52;22.43;;;11.50;;
71187;SDS011;58893;53.130;8.158;2022-10-31T11:51:23;28.10;;;12.90;;
71187;SDS011;58893;53.130;8.158;2022-10-31T11:53:52;29.17;;;11.10;;
71187;SDS011;58893;53.130;8.158;2022-10-31T11:56:22;33.90;;;9.97;;
71187;SDS011;58893;53.130;8.158;2022-10-31T11:58:54;32.00;;;11.90;;
71187;SDS011;58893;53.130;8.158;2022-10-31T12:01:24;21.03;;;10.40;;
71187;SDS011;58893;53.130;8.158;2022-10-31T12:03:59;31.33;;;10.70;;
71187;SDS011;58893;53.130;8.158;2022-10-31T12:06:28;25.53;;;10.70;;
71187;SDS011;58893;53.130;8.158;2022-10-31T12:08:59;18.73;;;10.63;;
71187;SDS011;58893;53.130;8.158;2022-10-31T12:13:58;31.93;;;12.80;;
71187;SDS011;58893;53.130;8.158;2022-10-31T12:16:28;25.33;;;10.10;;
71187;SDS011;58893;53.130;8.158;2022-10-31T12:29:29;31.10;;;12.50;;
71187;SDS011;58893;53.130;8.158;2022-10-31T12:35:03;28.83;;;11.53;;
71187;SDS011;58893;53.130;8.158;2022-10-31T12:45:50;34.70;;;14.93;;
71187;SDS011;58893;53.130;8.158;2022-10-31T12:51:01;27.30;;;13.27;;
71187;SDS011;58893;53.130;8.158;2022-10-31T12:58:44;30.80;;;13.50;;
71187;SDS011;58893;53.130;8.158;2022-10-31T13:01:20;31.87;;;12.57;;
71187;SDS011;58893;53.130;8.158;2022-10-31T13:03:56;27.80;;;12.73;;
71187;SDS011;58893;53.130;8.158;2022-10-31T13:06:32;25.30;;;12.10;;
71187;SDS011;58893;53.130;8.158;2022-10-31T13:09:02;32.63;;;13.70;;
71187;SDS011;58893;53.130;8.158;2022-10-31T13:11:32;31.70;;;12.97;;
71187;SDS011;58893;53.130;8.158;2022-10-31T13:14:09;35.73;;;11.80;;
71187;SDS011;58893;53.130;8.158;2022-10-31T13:16:44;22.10;;;12.97;;
71187;SDS011;58893;53.130;8.158;2022-10-31T13:24:36;33.47;;;12.00;;
71187;SDS011;58893;53.130;8.158;2022-10-31T13:27:18;29.17;;;13.17;;
71187;SDS011;58893;53.130;8.158;2022-10-31T13:30:48;30.70;;;12.50;;
71187;SDS011;58893;53.130;8.158;2022-10-31T13:33:34;23.37;;;11.37;;
71187;SDS011;58893;53.130;8.158;2022-10-31T13:35:58;29.33;;;10.47;;
71187;SDS011;58893;53.130;8.158;2022-10-31T13:41:45;25.50;;;11.60;;
71187;SDS011;58893;53.130;8.158;2022-10-31T13:44:17;21.57;;;10.70;;
71187;SDS011;58893;53.130;8.158;2022-10-31T13:46:47;26.07;;;12.10;;
71187;SDS011;58893;53.130;8.158;2022-10-31T13:51:53;21.87;;;11.27;;
71187;SDS011;58893;53.130;8.158;2022-10-31T13:54:32;29.90;;;12.03;;
71187;SDS011;58893;53.130;8.158;2022-10-31T13:57:01;32.53;;;14.70;;
71187;SDS011;58893;53.130;8.158;2022-10-31T13:59:31;24.27;;;13.33;;
71187;SDS011;58893;53.130;8.158;2022-10-31T14:02:02;30.07;;;14.57;;
71187;SDS011;58893;53.130;8.158;2022-10-31T14:04:50;35.70;;;15.53;;
71187;SDS011;58893;53.130;8.158;2022-10-31T14:07:20;28.47;;;13.90;;
71187;SDS011;58893;53.130;8.158;2022-10-31T14:12:43;32.23;;;14.27;;
71187;SDS011;58893;53.130;8.158;2022-10-31T14:15:17;27.47;;;14.57;;
71187;SDS011;58893;53.130;8.158;2022-10-31T14:17:54;35.00;;;13.87;;
71187;SDS011;58893;53.130;8.158;2022-10-31T14:22:48;25.60;;;12.43;;
71187;SDS011;58893;53.130;8.158;2022-10-31T14:25:33;23.87;;;12.40;;
71187;SDS011;58893;53.130;8.158;2022-10-31T14:28:02;27.77;;;13.30;;
71187;SDS011;58893;53.130;8.158;2022-10-31T14:30:50;31.07;;;12.63;;
71187;SDS011;58893;53.130;8.158;2022-10-31T14:33:22;27.33;;;12.40;;
71187;SDS011;58893;53.130;8.158;2022-10-31T14:35:51;32.97;;;12.07;;
71187;SDS011;58893;53.130;8.158;2022-10-31T14:41:25;28.30;;;13.10;;
71187;SDS011;58893;53.130;8.158;2022-10-31T14:44:17;32.90;;;14.60;;
71187;SDS011;58893;53.130;8.158;2022-10-31T14:53:01;30.20;;;14.77;;
71187;SDS011;58893;53.130;8.158;2022-10-31T14:55:29;34.40;;;17.13;;
71187;SDS011;58893;53.130;8.158;2022-10-31T14:57:59;40.57;;;17.10;;
71187;SDS011;58893;53.130;8.158;2022-10-31T15:00:29;39.07;;;18.70;;
71187;SDS011;58893;53.130;8.158;2022-10-31T15:05:22;34.30;;;18.40;;
71187;SDS011;58893;53.130;8.158;2022-10-31T15:07:50;52.27;;;19.70;;
71187;SDS011;58893;53.130;8.158;2022-10-31T15:12:48;42.23;;;20.17;;
71187;SDS011;58893;53.130;8.158;2022-10-31T15:15:14;40.87;;;20.67;;
71187;SDS011;58893;53.130;8.158;2022-10-31T15:17:59;50.67;;;20.87;;
71187;SDS011;58893;53.130;8.158;2022-10-31T15:20:28;39.20;;;20.37;;
71187;SDS011;58893;53.130;8.158;2022-10-31T15:22:57;39.97;;;19.07;;
71187;SDS011;58893;53.130;8.158;2022-10-31T15:25:25;35.20;;;19.27;;
71187;SDS011;58893;53.130;8.158;2022-10-31T15:27:53;40.13;;;20.27;;
71187;SDS011;58893;53.130;8.158;2022-10-31T15:30:23;40.80;;;19.17;;
71187;SDS011;58893;53.130;8.158;2022-10-31T15:32:50;39.07;;;18.47;;
71187;SDS011;58893;53.130;8.158;2022-10-31T15:35:20;49.83;;;19.73;;
71187;SDS011;58893;53.130;8.158;2022-10-31T15:37:53;47.20;;;19.57;;
71187;SDS011;58893;53.130;8.158;2022-10-31T15:40:21;45.80;;;18.73;;
71187;SDS011;58893;53.130;8.158;2022-10-31T15:43:06;41.83;;;20.90;;
71187;SDS011;58893;53.130;8.158;2022-10-31T15:45:32;50.27;;;21.40;;
71187;SDS011;58893;53.130;8.158;2022-10-31T15:48:02;46.37;;;21.27;;
71187;SDS011;58893;53.130;8.158;2022-10-31T15:50:41;48.70;;;19.60;;
71187;SDS011;58893;53.130;8.158;2022-10-31T15:55:56;44.40;;;19.40;;
71187;SDS011;58893;53.130;8.158;2022-10-31T15:58:23;40.20;;;19.07;;
71187;SDS011;58893;53.130;8.158;2022-10-31T16:01:00;42.40;;;21.20;;
71187;SDS011;58893;53.130;8.158;2022-10-31T16:03:31;40.07;;;19.07;;
71187;SDS011;58893;53.130;8.158;2022-10-31T16:05:59;40.20;;;19.57;;
71187;SDS011;58893;53.130;8.158;2022-10-31T16:10:55;41.37;;;19.90;;
71187;SDS011;58893;53.130;8.158;2022-10-31T16:13:32;37.27;;;19.40;;
71187;SDS011;58893;53.130;8.158;2022-10-31T16:16:00;49.53;;;19.90;;
71187;SDS011;58893;53.130;8.158;2022-10-31T16:18:28;43.77;;;21.00;;
71187;SDS011;58893;53.130;8.158;2022-10-31T16:20:59;46.73;;;19.77;;
71187;SDS011;58893;53.130;8.158;2022-10-31T16:23:25;43.40;;;17.73;;
71187;SDS011;58893;53.130;8.158;2022-10-31T16:25:52;42.70;;;19.40;;
71187;SDS011;58893;53.130;8.158;2022-10-31T16:28:20;40.27;;;18.93;;
71187;SDS011;58893;53.130;8.158;2022-10-31T16:30:51;42.93;;;20.07;;
71187;SDS011;58893;53.130;8.158;2022-10-31T16:36:01;49.10;;;20.60;;
71187;SDS011;58893;53.130;8.158;2022-10-31T16:38:55;45.03;;;20.30;;
71187;SDS011;58893;53.130;8.158;2022-10-31T16:41:21;44.60;;;19.83;;
71187;SDS011;58893;53.130;8.158;2022-10-31T16:43:48;50.90;;;19.70;;
71187;SDS011;58893;53.130;8.158;2022-10-31T16:46:15;46.03;;;20.80;;
71187;SDS011;58893;53.130;8.158;2022-10-31T16:48:49;43.77;;;21.53;;
71187;SDS011;58893;53.130;8.158;2022-10-31T16:51:15;38.30;;;19.10;;
71187;SDS011;58893;53.130;8.158;2022-10-31T16:53:40;42.73;;;20.77;;
71187;SDS011;58893;53.130;8.158;2022-10-31T16:56:06;41.50;;;20.67;;